createdAt,value
2023-04-14T00:01:18.541Z,8.60
2023-04-14T00:03:46.978Z,8.60
2023-04-14T00:06:15.458Z,8.60
2023-04-14T00:08:43.773Z,8.70
2023-04-14T00:11:12.096Z,8.70
2023-04-14T00:13:41.847Z,8.70
2023-04-14T00:16:11.623Z,8.70
2023-04-14T00:18:39.881Z,8.70
2023-04-14T00:21:08.132Z,8.70
2023-04-14T00:23:36.429Z,8.80
2023-04-14T00:26:05.042Z,8.80
2023-04-14T00:28:33.323Z,8.80
2023-04-14T00:31:03.054Z,8.80
2023-04-14T00:33:31.363Z,8.90
2023-04-14T00:35:59.619Z,8.90
2023-04-14T00:38:27.896Z,8.90
2023-04-14T00:40:56.125Z,8.90
2023-04-14T00:43:24.436Z,8.90
2023-04-14T00:45:52.847Z,9.00
2023-04-14T00:48:22.576Z,9.00
2023-04-14T00:50:50.864Z,9.00
2023-04-14T00:53:20.058Z,9.00
2023-04-14T00:55:48.301Z,8.90
2023-04-14T00:58:16.992Z,8.90
2023-04-14T01:00:46.221Z,8.90
2023-04-14T01:03:14.700Z,8.80
2023-04-14T01:05:44.483Z,8.80
2023-04-14T01:08:12.735Z,8.80
2023-04-14T01:10:46.008Z,8.80
2023-04-14T01:13:24.538Z,8.70
2023-04-14T01:15:55.489Z,8.70
2023-04-14T01:18:28.091Z,8.60
2023-04-14T01:21:02.130Z,8.60
2023-04-14T01:23:34.681Z,8.60
2023-04-14T01:26:27.458Z,8.60
2023-04-14T01:29:32.272Z,8.60
2023-04-14T01:32:05.687Z,8.60
2023-04-14T01:34:38.039Z,8.60
2023-04-14T01:37:08.307Z,8.60
2023-04-14T01:39:39.315Z,8.50
2023-04-14T01:42:11.646Z,8.50
2023-04-14T01:44:40.603Z,8.50
2023-04-14T01:47:13.785Z,8.50
2023-04-14T01:49:42.361Z,8.40
2023-04-14T01:52:11.359Z,8.40
2023-04-14T01:54:41.462Z,8.40
2023-04-14T01:57:10.040Z,8.30
2023-04-14T01:59:38.342Z,8.40
2023-04-14T02:02:08.970Z,8.30
2023-04-14T02:04:38.902Z,8.30
2023-04-14T02:07:07.139Z,8.30
2023-04-14T02:09:35.446Z,8.30
2023-04-14T02:12:03.926Z,8.30
2023-04-14T02:14:33.042Z,8.30
2023-04-14T02:17:02.676Z,8.30
2023-04-14T02:19:31.335Z,8.30
2023-04-14T02:22:01.314Z,8.30
2023-04-14T02:24:30.755Z,8.30
2023-04-14T02:27:02.066Z,8.30
2023-04-14T02:29:30.408Z,8.30
2023-04-14T02:32:01.854Z,8.30
2023-04-14T02:34:33.057Z,8.30
2023-04-14T02:37:05.050Z,8.30
2023-04-14T02:39:38.133Z,8.30
2023-04-14T02:42:13.762Z,8.40
2023-04-14T02:44:46.756Z,8.40
2023-04-14T02:47:17.280Z,8.40
2023-04-14T02:49:46.701Z,8.40
2023-04-14T02:52:18.684Z,8.40
2023-04-14T02:54:47.234Z,8.40
2023-04-14T02:57:15.778Z,8.50
2023-04-14T02:59:44.056Z,8.50
2023-04-14T03:02:12.487Z,8.60
2023-04-14T03:04:41.166Z,8.60
2023-04-14T03:07:10.536Z,8.60
2023-04-14T03:09:40.250Z,8.60
2023-04-14T03:12:09.086Z,8.60
2023-04-14T03:14:37.433Z,8.50
2023-04-14T03:17:05.758Z,8.50
2023-04-14T03:19:34.218Z,8.50
2023-04-14T03:22:03.811Z,8.50
2023-04-14T03:24:32.618Z,8.50
2023-04-14T03:27:05.727Z,8.50
2023-04-14T03:29:37.846Z,8.40
2023-04-14T03:32:07.793Z,8.40
2023-04-14T03:34:37.731Z,8.30
2023-04-14T03:37:06.238Z,8.30
2023-04-14T03:39:34.595Z,8.30
2023-04-14T03:42:04.751Z,8.30
2023-04-14T03:44:35.714Z,8.30
2023-04-14T03:47:05.033Z,8.30
2023-04-14T03:49:34.223Z,8.30
2023-04-14T03:52:05.097Z,8.30
2023-04-14T03:54:33.889Z,8.30
2023-04-14T03:57:06.113Z,8.30
2023-04-14T03:59:34.788Z,8.30
2023-04-14T04:02:03.355Z,8.30
2023-04-14T04:04:31.938Z,8.30
2023-04-14T04:07:00.574Z,8.40
2023-04-14T04:09:29.789Z,8.40
2023-04-14T04:11:59.942Z,8.40
2023-04-14T04:14:29.966Z,8.40
2023-04-14T04:16:58.490Z,8.50
2023-04-14T04:19:26.796Z,8.40
2023-04-14T04:21:57.477Z,8.40
2023-04-14T04:24:27.857Z,8.40
2023-04-14T04:26:56.221Z,8.40
2023-04-14T04:29:24.540Z,8.40
2023-04-14T04:31:55.404Z,8.30
2023-04-14T04:34:24.481Z,8.30
2023-04-14T04:36:52.948Z,8.30
2023-04-14T04:39:21.293Z,8.30
2023-04-14T04:41:51.887Z,8.30
2023-04-14T04:44:20.325Z,8.30
2023-04-14T04:46:53.614Z,8.30
2023-04-14T04:49:21.948Z,8.30
2023-04-14T04:51:50.261Z,8.40
2023-04-14T04:54:18.757Z,8.40
2023-04-14T04:56:47.096Z,8.40
2023-04-14T04:59:15.456Z,8.50
2023-04-14T05:01:43.789Z,8.50
2023-04-14T05:04:14.112Z,8.50
2023-04-14T05:06:42.504Z,8.50
2023-04-14T05:09:10.865Z,8.50
2023-04-14T05:11:39.185Z,8.50
2023-04-14T05:14:07.534Z,8.50
2023-04-14T05:16:36.328Z,8.50
2023-04-14T05:19:06.052Z,8.50
2023-04-14T05:21:36.116Z,8.50
2023-04-14T05:24:05.360Z,8.60
2023-04-14T05:26:49.109Z,8.70
2023-04-14T05:29:21.983Z,8.70
2023-04-14T05:31:50.397Z,8.80
2023-04-14T05:34:18.672Z,8.80
2023-04-14T05:36:48.376Z,8.80
2023-04-14T05:39:17.019Z,8.80
2023-04-14T05:41:45.482Z,8.80
2023-04-14T05:44:13.884Z,8.90
2023-04-14T05:46:42.306Z,8.90
2023-04-14T05:49:10.717Z,8.90
2023-04-14T05:51:39.544Z,8.90
2023-04-14T05:54:09.567Z,8.90
2023-04-14T05:56:38.049Z,9.00
2023-04-14T05:59:06.378Z,9.00
2023-04-14T06:01:34.669Z,9.10
2023-04-14T06:04:04.571Z,9.10
2023-04-14T06:06:33.606Z,9.20
2023-04-14T06:09:02.152Z,9.20
2023-04-14T06:11:32.002Z,9.30
2023-04-14T06:14:02.031Z,9.30
2023-04-14T06:16:33.899Z,9.40
2023-04-14T06:19:02.704Z,9.40
2023-04-14T06:21:31.526Z,9.40
2023-04-14T06:23:59.848Z,9.50
2023-04-14T06:26:28.609Z,9.50
2023-04-14T06:28:59.407Z,9.60
2023-04-14T06:31:28.023Z,9.60
2023-04-14T06:33:56.473Z,9.60
2023-04-14T06:36:24.821Z,9.60
2023-04-14T06:38:53.095Z,9.60
2023-04-14T06:41:21.370Z,9.60
2023-04-14T06:43:49.693Z,9.60
2023-04-14T06:46:19.418Z,9.70
2023-04-14T06:48:47.841Z,9.70
2023-04-14T06:51:16.134Z,9.70
2023-04-14T06:53:44.454Z,9.70
2023-04-14T06:56:14.618Z,9.80
2023-04-14T06:58:43.303Z,9.70
2023-04-14T07:01:11.606Z,9.70
2023-04-14T07:03:41.357Z,9.70
2023-04-14T07:06:11.649Z,9.60
2023-04-14T07:08:40.634Z,9.60
2023-04-14T07:11:10.265Z,9.60
2023-04-14T07:13:38.877Z,9.60
2023-04-14T07:16:09.113Z,9.70
2023-04-14T07:18:37.593Z,9.70
2023-04-14T07:21:07.447Z,9.70
2023-04-14T07:23:35.774Z,9.60
2023-04-14T07:26:04.082Z,9.60
2023-04-14T07:28:32.574Z,9.60
2023-04-14T07:31:01.794Z,9.60
2023-04-14T07:33:31.347Z,9.60
2023-04-14T07:36:02.687Z,9.60
2023-04-14T07:38:33.428Z,9.60
2023-04-14T07:41:05.067Z,9.70
2023-04-14T07:43:35.608Z,9.70
2023-04-14T07:46:05.520Z,9.80
2023-04-14T07:48:34.185Z,9.80
2023-04-14T07:51:03.033Z,9.70
2023-04-14T07:53:32.848Z,9.60
2023-04-14T07:56:01.286Z,9.60
2023-04-14T07:58:30.018Z,9.50
2023-04-14T08:00:58.659Z,9.50
2023-04-14T08:03:27.257Z,9.40
2023-04-14T08:05:55.884Z,9.40
2023-04-14T08:08:24.292Z,9.40
2023-04-14T08:10:53.971Z,9.40
2023-04-14T08:13:22.304Z,9.50
2023-04-14T08:15:50.911Z,9.50
2023-04-14T08:18:19.502Z,9.60
2023-04-14T08:20:47.788Z,9.70
2023-04-14T08:23:16.214Z,9.80
2023-04-14T08:25:44.839Z,9.80
2023-04-14T08:28:14.525Z,9.80
2023-04-14T08:30:42.804Z,9.80
2023-04-14T08:33:11.348Z,9.70
2023-04-14T08:35:42.595Z,9.70
2023-04-14T08:38:11.363Z,9.70
2023-04-14T08:40:41.214Z,9.70
2023-04-14T08:43:10.015Z,9.70
2023-04-14T08:45:41.309Z,9.70
2023-04-14T08:48:09.893Z,9.70
2023-04-14T08:50:39.182Z,9.70
2023-04-14T08:53:10.554Z,9.80
2023-04-14T08:55:41.440Z,9.70
2023-04-14T08:58:10.522Z,9.70
2023-04-14T09:00:41.213Z,9.80
2023-04-14T09:03:10.059Z,9.80
2023-04-14T09:05:38.459Z,9.90
2023-04-14T09:08:06.899Z,10.00
2023-04-14T09:10:36.052Z,9.90
2023-04-14T09:13:05.320Z,9.90
2023-04-14T09:15:33.654Z,9.80
2023-04-14T09:18:03.431Z,9.80
2023-04-14T09:20:39.708Z,9.70
2023-04-14T09:23:10.440Z,9.60
2023-04-14T09:25:39.794Z,9.60
2023-04-14T09:28:08.167Z,9.40
2023-04-14T09:30:36.546Z,9.40
2023-04-14T09:33:08.101Z,9.30
2023-04-14T09:35:47.499Z,9.30
2023-04-14T09:38:15.930Z,9.30
2023-04-14T09:40:45.008Z,9.30
2023-04-14T09:43:26.943Z,9.40
2023-04-14T09:45:56.361Z,9.40
2023-04-14T09:48:26.076Z,9.40
2023-04-14T09:51:01.597Z,9.40
2023-04-14T09:53:31.320Z,9.40
2023-04-14T09:56:02.523Z,9.40
2023-04-14T09:58:31.681Z,9.50
2023-04-14T10:01:00.553Z,9.50
2023-04-14T10:03:39.345Z,9.50
2023-04-14T10:06:11.684Z,9.50
2023-04-14T10:08:41.144Z,9.50
2023-04-14T10:11:18.191Z,9.30
2023-04-14T10:13:47.078Z,9.30
2023-04-14T10:16:15.913Z,9.30
2023-04-14T10:18:45.828Z,9.30
2023-04-14T10:21:14.652Z,9.20
2023-04-14T10:23:43.453Z,9.20
2023-04-14T10:26:12.848Z,9.10
2023-04-14T10:28:43.317Z,9.20
2023-04-14T10:31:16.055Z,9.20
2023-04-14T10:33:47.106Z,9.20
2023-04-14T10:36:25.115Z,9.20
2023-04-14T10:39:00.802Z,9.30
2023-04-14T10:41:29.661Z,9.30
2023-04-14T10:43:57.937Z,9.40
2023-04-14T10:46:26.346Z,9.50
2023-04-14T10:48:56.024Z,9.50
2023-04-14T10:51:25.107Z,9.40
2023-04-14T10:53:55.540Z,9.40
2023-04-14T10:56:25.008Z,9.30
2023-04-14T10:58:56.181Z,9.30
2023-04-14T11:01:30.847Z,9.20
2023-04-14T11:04:23.708Z,9.20
2023-04-14T11:06:57.156Z,9.20
2023-04-14T11:09:37.082Z,9.20
2023-04-14T11:12:07.347Z,9.20
2023-04-14T11:14:37.303Z,9.20
2023-04-14T11:17:06.160Z,9.20
2023-04-14T11:19:35.883Z,9.20
2023-04-14T11:22:04.214Z,9.20
2023-04-14T11:24:32.532Z,9.20
2023-04-14T11:27:00.823Z,9.10
2023-04-14T11:29:29.194Z,9.10
2023-04-14T11:32:05.613Z,9.00
2023-04-14T11:34:35.539Z,9.00
2023-04-14T11:37:05.042Z,9.10
2023-04-14T11:39:35.556Z,9.10
2023-04-14T11:42:04.161Z,9.10
2023-04-14T11:44:32.470Z,9.10
2023-04-14T11:47:01.271Z,9.00
2023-04-14T11:49:37.871Z,9.00
2023-04-14T11:52:08.559Z,8.90
2023-04-14T11:54:38.356Z,8.90
2023-04-14T11:57:11.477Z,8.90
2023-04-14T11:59:46.741Z,8.90
2023-04-14T12:02:19.477Z,9.00
2023-04-14T12:04:51.068Z,9.00
2023-04-14T12:07:20.780Z,8.90
2023-04-14T12:09:50.189Z,9.00
2023-04-14T12:12:20.118Z,9.00
2023-04-14T12:14:49.773Z,9.10
2023-04-14T12:17:18.837Z,9.10
2023-04-14T12:19:50.020Z,9.10
2023-04-14T12:22:25.572Z,9.00
2023-04-14T12:24:53.960Z,9.10
2023-04-14T12:27:24.585Z,9.20
2023-04-14T12:29:53.205Z,9.10
2023-04-14T12:32:22.790Z,9.00
2023-04-14T12:34:57.936Z,9.00
2023-04-14T12:37:27.405Z,9.00
2023-04-14T12:39:58.562Z,9.00
2023-04-14T12:42:27.076Z,9.00
2023-04-14T12:44:57.768Z,9.00
2023-04-14T12:47:30.576Z,9.00
2023-04-14T12:50:01.065Z,9.00
2023-04-14T12:52:40.457Z,9.00
2023-04-14T12:55:19.602Z,9.10
2023-04-14T12:57:47.889Z,9.10
2023-04-14T13:00:17.135Z,9.10
2023-04-14T13:02:46.821Z,9.20
2023-04-14T13:05:16.950Z,9.30
2023-04-14T13:07:46.336Z,9.30
2023-04-14T13:10:14.938Z,9.30
2023-04-14T13:12:43.295Z,9.30
2023-04-14T13:16:10.889Z,9.40
2023-04-14T13:18:02.032Z,9.40
2023-04-14T13:20:31.812Z,9.40
2023-04-14T13:23:00.110Z,9.40
2023-04-14T13:25:28.365Z,9.50
2023-04-14T13:27:56.696Z,9.50
2023-04-14T13:30:25.065Z,9.40
2023-04-14T13:32:53.510Z,9.40
2023-04-14T13:35:22.058Z,9.30
2023-04-14T13:37:51.931Z,9.30
2023-04-14T13:40:20.300Z,9.40
2023-04-14T13:42:48.944Z,9.30
2023-04-14T13:45:17.469Z,9.30
2023-04-14T13:47:48.196Z,9.20
2023-04-14T13:50:17.686Z,9.30
2023-04-14T13:52:46.082Z,9.30
2023-04-14T13:55:15.670Z,9.30
2023-04-14T13:57:43.980Z,9.40
2023-04-14T14:00:14.025Z,9.30
2023-04-14T14:02:42.678Z,9.40
2023-04-14T14:05:12.130Z,9.40
2023-04-14T14:07:40.455Z,9.40
2023-04-14T14:10:10.912Z,9.40
2023-04-14T14:12:40.861Z,9.30
2023-04-14T14:15:10.667Z,9.30
2023-04-14T14:17:39.080Z,9.40
2023-04-14T14:20:09.567Z,9.40
2023-04-14T14:22:38.007Z,9.40
2023-04-14T14:25:19.446Z,9.40
2023-04-14T14:27:51.578Z,9.40
2023-04-14T14:30:19.905Z,9.30
2023-04-14T14:32:55.120Z,9.40
2023-04-14T14:35:23.394Z,9.40
2023-04-14T14:37:51.698Z,9.40
2023-04-14T14:40:20.078Z,9.30
2023-04-14T14:42:49.756Z,9.30
2023-04-14T14:45:18.882Z,9.30
2023-04-14T14:47:54.639Z,9.20
2023-04-14T14:50:23.149Z,9.20
2023-04-14T14:52:51.443Z,9.20
2023-04-14T14:55:19.982Z,9.20
2023-04-14T14:57:50.992Z,9.20
2023-04-14T15:00:20.117Z,9.20
2023-04-14T15:02:48.577Z,9.10
2023-04-14T15:05:17.199Z,9.10
2023-04-14T15:07:45.495Z,9.00
2023-04-14T15:10:13.857Z,9.00
2023-04-14T15:12:42.120Z,9.10
2023-04-14T15:15:13.030Z,9.10
2023-04-14T15:17:41.452Z,9.00
2023-04-14T15:20:11.437Z,9.00
2023-04-14T15:22:39.724Z,9.00
2023-04-14T15:25:10.076Z,9.00
2023-04-14T15:27:38.373Z,9.00
2023-04-14T15:30:08.619Z,9.00
2023-04-14T15:32:38.376Z,9.00
2023-04-14T15:35:07.788Z,9.00
2023-04-14T15:37:36.745Z,9.00
2023-04-14T15:40:05.332Z,9.00
2023-04-14T15:42:33.677Z,8.90
2023-04-14T15:45:02.053Z,8.90
2023-04-14T15:47:30.324Z,8.90
2023-04-14T15:50:00.082Z,8.80
2023-04-14T15:52:37.146Z,8.80
2023-04-14T15:55:06.395Z,8.80
2023-04-14T15:57:34.742Z,8.80
2023-04-14T16:00:04.628Z,8.80
2023-04-14T16:02:35.505Z,8.70
2023-04-14T16:05:06.309Z,8.70
2023-04-14T16:07:34.807Z,8.70
2023-04-14T16:10:03.306Z,8.70
2023-04-14T16:12:31.713Z,8.70
2023-04-14T16:15:00.213Z,8.70
2023-04-14T16:17:28.529Z,8.70
2023-04-14T16:19:57.134Z,8.70
2023-04-14T16:22:27.621Z,8.70
2023-04-14T16:24:55.861Z,8.70
2023-04-14T16:27:24.173Z,8.70
2023-04-14T16:29:52.534Z,8.80
2023-04-14T16:32:21.356Z,8.80
2023-04-14T16:34:49.889Z,8.80
2023-04-14T16:37:18.228Z,8.90
2023-04-14T16:39:47.856Z,8.90
2023-04-14T16:42:18.639Z,8.90
2023-04-14T16:44:46.911Z,8.90
2023-04-14T16:47:15.566Z,8.90
2023-04-14T16:49:43.891Z,8.90
2023-04-14T16:52:12.237Z,8.90
2023-04-14T16:54:41.305Z,9.00
2023-04-14T16:57:11.041Z,9.00
2023-04-14T16:59:39.803Z,9.00
2023-04-14T17:02:08.409Z,9.00
2023-04-14T17:04:37.203Z,9.00
2023-04-14T17:07:05.742Z,9.10
2023-04-14T17:09:34.048Z,9.10
2023-04-14T17:12:02.442Z,9.10
2023-04-14T17:14:32.548Z,9.10
2023-04-14T17:17:01.289Z,9.00
2023-04-14T17:19:29.646Z,9.00
2023-04-14T17:21:58.122Z,9.00
2023-04-14T17:24:26.450Z,9.00
2023-04-14T17:26:55.628Z,9.00
2023-04-14T17:29:23.950Z,9.00
2023-04-14T17:31:54.408Z,9.10
2023-04-14T17:34:22.854Z,9.10
2023-04-14T17:36:51.445Z,9.10
2023-04-14T17:39:26.404Z,9.20
2023-04-14T17:41:56.092Z,9.20
2023-04-14T17:44:24.686Z,9.20
2023-04-14T17:46:54.876Z,9.20
2023-04-14T17:49:23.230Z,9.20
2023-04-14T17:51:51.558Z,9.20
2023-04-14T17:54:19.806Z,9.10
2023-04-14T17:56:49.159Z,9.00
2023-04-14T17:59:17.497Z,9.00
2023-04-14T18:01:46.001Z,9.00
2023-04-14T18:04:16.059Z,8.90
2023-04-14T18:06:44.332Z,8.90
2023-04-14T18:09:12.870Z,8.90
2023-04-14T18:11:41.173Z,8.90
2023-04-14T18:14:09.488Z,8.90
2023-04-14T18:16:37.900Z,8.90
2023-04-14T18:19:06.325Z,8.90
2023-04-14T18:21:36.085Z,8.90
2023-04-14T18:26:36.106Z,8.80
2023-04-14T18:29:04.723Z,8.80
2023-04-14T18:31:33.491Z,8.80
2023-04-14T18:34:05.138Z,8.80
2023-04-14T18:36:34.846Z,8.80
2023-04-14T18:39:03.440Z,8.80
2023-04-14T18:41:31.886Z,8.80
2023-04-14T18:44:00.229Z,8.70
2023-04-14T18:46:28.598Z,8.70
2023-04-14T18:48:57.000Z,8.70
2023-04-14T18:51:25.894Z,8.60
2023-04-14T18:53:55.750Z,8.60
2023-04-14T18:56:24.086Z,8.70
2023-04-14T18:58:52.866Z,8.70
2023-04-14T19:01:21.480Z,8.70
2023-04-14T19:03:49.971Z,8.70
2023-04-14T19:06:18.237Z,8.70
2023-04-14T19:08:46.630Z,8.80
2023-04-14T19:11:16.281Z,8.80
2023-04-14T19:13:44.579Z,8.80
2023-04-14T19:16:13.391Z,8.80
2023-04-14T19:18:41.882Z,8.80
2023-04-14T19:21:10.262Z,8.80
2023-04-14T19:23:39.906Z,8.80
2023-04-14T19:26:10.302Z,8.80
2023-04-14T19:28:42.358Z,8.80
2023-04-14T19:31:10.943Z,8.80
2023-04-14T19:33:41.683Z,8.90
2023-04-14T19:36:14.214Z,8.90
2023-04-14T19:38:42.558Z,8.90
2023-04-14T19:41:10.870Z,9.00
2023-04-14T19:43:40.510Z,9.00
2023-04-14T19:46:10.437Z,9.00
2023-04-14T19:48:39.078Z,8.90
2023-04-14T19:51:07.989Z,9.00
2023-04-14T19:53:36.455Z,9.00
2023-04-14T19:56:05.626Z,9.00
2023-04-14T19:58:33.973Z,9.00
2023-04-14T20:01:03.665Z,9.00
2023-04-14T20:03:34.302Z,9.00
2023-04-14T20:06:03.115Z,9.00
2023-04-14T20:08:32.262Z,9.00
2023-04-14T20:11:01.573Z,9.00
2023-04-14T20:13:32.110Z,9.10
2023-04-14T20:16:01.483Z,9.10
2023-04-14T20:18:31.164Z,9.10
2023-04-14T20:20:59.658Z,9.00
2023-04-14T20:23:28.139Z,9.00
2023-04-14T20:25:56.802Z,9.00
2023-04-14T20:28:26.449Z,9.00
2023-04-14T20:30:55.935Z,9.00
2023-04-14T20:33:24.715Z,9.00
2023-04-14T20:35:54.508Z,9.00
2023-04-14T20:38:23.559Z,9.00
2023-04-14T20:40:51.966Z,9.00
2023-04-14T20:43:20.358Z,8.90
2023-04-14T20:45:49.928Z,8.90
2023-04-14T20:48:18.558Z,9.00
2023-04-14T20:50:49.702Z,9.00
2023-04-14T20:53:21.976Z,9.00
2023-04-14T20:55:51.028Z,9.00
2023-04-14T20:58:19.404Z,9.00
2023-04-14T21:00:47.656Z,8.90
2023-04-14T21:03:16.075Z,8.90
2023-04-14T21:05:44.550Z,8.90
2023-04-14T21:08:12.822Z,8.90
2023-04-14T21:11:02.124Z,8.90
2023-04-14T21:15:11.400Z,8.90
2023-04-14T21:16:19.004Z,8.90
2023-04-14T21:18:47.406Z,8.90
2023-04-14T21:21:16.219Z,8.90
2023-04-14T21:23:44.496Z,8.90
2023-04-14T21:26:14.350Z,8.90
2023-04-14T21:28:42.919Z,8.90
2023-04-14T21:31:11.375Z,8.90
2023-04-14T21:33:41.665Z,8.90
2023-04-14T21:36:10.793Z,8.90
2023-04-14T21:38:39.583Z,8.90
2023-04-14T21:41:08.589Z,8.90
2023-04-14T21:43:38.486Z,8.90
2023-04-14T21:46:07.010Z,8.90
2023-04-14T21:48:35.700Z,8.90
2023-04-14T21:51:04.554Z,8.90
2023-04-14T21:53:33.604Z,8.90
2023-04-14T21:56:09.745Z,8.90
2023-04-14T21:58:40.732Z,8.90
2023-04-14T22:01:10.346Z,8.90
2023-04-14T22:03:41.626Z,8.90
2023-04-14T22:06:11.345Z,8.90
2023-04-14T22:08:40.494Z,8.90
2023-04-14T22:11:08.897Z,8.80
2023-04-14T22:13:37.433Z,8.80
2023-04-14T22:16:09.320Z,8.80
2023-04-14T22:18:38.905Z,8.90
2023-04-14T22:21:08.061Z,8.90
2023-04-14T22:23:36.393Z,8.90
2023-04-14T22:26:04.707Z,8.90
2023-04-14T22:28:32.986Z,8.90
2023-04-14T22:31:01.612Z,8.90
2023-04-14T22:33:31.463Z,8.90
2023-04-14T22:36:03.379Z,8.90
2023-04-14T22:38:33.769Z,8.90
2023-04-14T22:41:02.471Z,8.90
2023-04-14T22:43:30.897Z,8.90
2023-04-14T22:45:59.207Z,8.90
2023-04-14T22:48:27.539Z,8.90
2023-04-14T22:50:57.378Z,8.90
2023-04-14T22:53:25.794Z,8.90
2023-04-14T22:55:54.069Z,8.90
2023-04-14T22:58:24.077Z,8.90
2023-04-14T23:00:52.664Z,8.80
2023-04-14T23:03:21.332Z,8.90
2023-04-14T23:05:51.794Z,8.90
2023-04-14T23:08:21.477Z,8.80
2023-04-14T23:10:49.774Z,8.80
2023-04-14T23:13:18.037Z,8.80
2023-04-14T23:15:46.397Z,8.80
2023-04-14T23:18:14.691Z,8.80
2023-04-14T23:20:43.181Z,8.80
2023-04-14T23:23:12.385Z,8.80
2023-04-14T23:25:42.162Z,8.80
2023-04-14T23:28:10.626Z,8.70
2023-04-14T23:30:38.979Z,8.70
2023-04-14T23:33:07.664Z,8.70
2023-04-14T23:35:38.782Z,8.70
2023-04-14T23:38:07.196Z,8.70
2023-04-14T23:40:35.608Z,8.70
2023-04-14T23:43:05.281Z,8.70
2023-04-14T23:45:37.060Z,8.70
2023-04-14T23:48:05.811Z,8.70
2023-04-14T23:50:59.087Z,8.70
2023-04-14T23:53:22.438Z,8.70
2023-04-14T23:55:50.831Z,8.70
2023-04-14T23:58:26.534Z,8.70
